createdAt,value
2017-11-26T00:03:06.114Z,77.60
2017-11-26T00:08:09.453Z,77.60
2017-11-26T00:13:11.984Z,77.60
2017-11-26T00:18:14.528Z,77.60
2017-11-26T00:23:17.084Z,77.60
2017-11-26T00:28:19.615Z,77.70
2017-11-26T00:33:22.179Z,77.90
2017-11-26T00:38:24.716Z,78.00
2017-11-26T00:43:27.258Z,78.00
2017-11-26T00:48:29.802Z,78.00
2017-11-26T00:53:32.356Z,78.10
2017-11-26T00:58:34.902Z,78.20
2017-11-26T01:03:37.452Z,78.30
2017-11-26T01:08:39.986Z,78.10
2017-11-26T01:13:42.551Z,78.10
2017-11-26T01:18:45.076Z,77.90
2017-11-26T01:23:47.608Z,78.00
2017-11-26T01:28:50.168Z,77.70
2017-11-26T01:33:52.716Z,77.60
2017-11-26T01:38:55.300Z,77.30
2017-11-26T01:43:57.847Z,77.10
2017-11-26T01:49:00.401Z,77.00
2017-11-26T01:54:03.714Z,76.80
2017-11-26T01:59:06.255Z,76.80
2017-11-26T02:04:08.800Z,76.70
2017-11-26T02:09:12.120Z,76.60
2017-11-26T02:14:14.647Z,76.60
2017-11-26T02:19:17.172Z,76.80
2017-11-26T02:24:19.734Z,77.10
2017-11-26T02:29:22.267Z,77.20
2017-11-26T02:34:36.779Z,77.20
2017-11-26T02:39:39.319Z,77.10
2017-11-26T02:44:41.856Z,77.10
2017-11-26T02:49:44.405Z,77.20
2017-11-26T02:54:46.947Z,77.20
2017-11-26T02:59:49.499Z,77.10
2017-11-26T03:04:52.032Z,76.90
2017-11-26T03:09:54.570Z,76.80
2017-11-26T03:14:57.114Z,77.00
2017-11-26T03:19:59.658Z,76.90
2017-11-26T03:25:02.192Z,77.10
2017-11-26T03:30:04.756Z,77.00
2017-11-26T03:35:07.309Z,77.20
2017-11-26T03:40:09.892Z,77.40
2017-11-26T03:45:12.432Z,77.50
2017-11-26T03:50:14.984Z,77.50
2017-11-26T03:55:17.537Z,77.60
2017-11-26T04:00:20.080Z,77.50
2017-11-26T04:05:22.624Z,77.60
2017-11-26T04:10:25.164Z,77.50
2017-11-26T04:15:27.723Z,77.60
2017-11-26T04:20:31.009Z,77.50
2017-11-26T04:25:33.553Z,77.60
2017-11-26T04:30:36.089Z,77.60
2017-11-26T04:35:38.641Z,77.50
2017-11-26T04:40:41.196Z,77.50
2017-11-26T04:45:43.750Z,77.30
2017-11-26T04:50:46.303Z,77.50
2017-11-26T04:55:48.844Z,77.40
2017-11-26T05:00:51.421Z,77.80
2017-11-26T05:05:53.957Z,77.70
2017-11-26T05:10:56.503Z,77.70
2017-11-26T05:15:59.056Z,77.70
2017-11-26T05:21:01.595Z,77.80
2017-11-26T05:26:04.123Z,77.90
2017-11-26T05:31:06.683Z,77.70
2017-11-26T05:36:09.251Z,77.60
2017-11-26T05:41:11.806Z,77.50
2017-11-26T05:46:14.365Z,77.50
2017-11-26T05:51:16.959Z,77.50
2017-11-26T05:56:19.484Z,77.40
2017-11-26T06:01:22.036Z,77.40
2017-11-26T06:06:24.592Z,77.20
2017-11-26T06:11:27.141Z,77.20
2017-11-26T06:16:30.462Z,77.10
2017-11-26T06:21:33.764Z,77.00
2017-11-26T06:26:36.288Z,77.00
2017-11-26T06:31:38.849Z,77.00
2017-11-26T06:36:41.396Z,76.90
2017-11-26T06:41:43.948Z,76.90
2017-11-26T06:46:46.524Z,76.90
2017-11-26T06:51:49.840Z,76.70
2017-11-26T06:56:52.396Z,76.70
2017-11-26T07:01:54.928Z,76.70
2017-11-26T07:06:57.481Z,76.80
2017-11-26T07:12:00.026Z,76.70
2017-11-26T07:17:02.566Z,76.50
2017-11-26T07:22:05.898Z,76.40
2017-11-26T07:27:09.226Z,76.40
2017-11-26T07:32:11.819Z,76.30
2017-11-26T07:37:14.386Z,76.40
2017-11-26T07:42:16.949Z,76.60
2017-11-26T07:47:19.591Z,76.60
2017-11-26T07:52:22.140Z,76.30
2017-11-26T07:57:24.683Z,76.30
2017-11-26T08:02:27.216Z,76.30
2017-11-26T08:07:29.781Z,76.30
2017-11-26T08:12:32.324Z,76.50
2017-11-26T08:17:34.853Z,76.40
2017-11-26T08:22:37.694Z,76.00
2017-11-26T08:27:40.240Z,76.10
2017-11-26T08:32:43.008Z,76.80
2017-11-26T08:37:45.563Z,76.20
2017-11-26T08:42:48.128Z,76.20
2017-11-26T08:47:50.671Z,75.90
2017-11-26T08:52:53.237Z,75.80
2017-11-26T08:57:55.793Z,75.20
2017-11-26T09:02:58.354Z,75.40
2017-11-26T09:08:02.836Z,75.20
2017-11-26T09:13:06.140Z,75.10
2017-11-26T09:18:08.879Z,75.10
2017-11-26T09:23:11.436Z,74.90
2017-11-26T09:28:14.007Z,75.30
2017-11-26T09:33:16.565Z,75.10
2017-11-26T09:38:19.108Z,74.90
2017-11-26T09:43:21.647Z,74.70
2017-11-26T09:48:24.203Z,74.30
2017-11-26T09:53:27.156Z,74.70
2017-11-26T09:58:30.470Z,74.40
2017-11-26T10:03:33.027Z,74.40
2017-11-26T10:08:35.876Z,74.50
2017-11-26T10:13:39.201Z,74.60
2017-11-26T10:18:41.757Z,74.60
2017-11-26T11:46:54.397Z,74.00
2017-11-26T11:57:35.566Z,73.40
2017-11-26T12:02:38.955Z,73.50
2017-11-26T12:07:41.685Z,73.50
2017-11-26T12:12:45.022Z,74.00
2017-11-26T12:17:47.754Z,73.90
2017-11-26T12:22:50.449Z,73.90
2017-11-26T12:27:53.097Z,73.80
2017-11-26T12:32:55.691Z,74.00
2017-11-26T12:37:58.369Z,73.20
2017-11-26T12:43:01.052Z,73.50
2017-11-26T12:48:03.781Z,74.00
2017-11-26T12:53:06.515Z,73.80
2017-11-26T12:58:09.106Z,73.80
2017-11-26T13:03:11.745Z,74.00
2017-11-26T13:08:14.328Z,73.90
2017-11-26T13:13:17.549Z,73.40
2017-11-26T13:18:21.000Z,73.40
2017-11-26T13:23:23.610Z,73.30
2017-11-26T13:28:26.262Z,73.10
2017-11-26T13:33:29.740Z,72.30
2017-11-26T13:43:41.472Z,71.80
2017-11-26T13:48:44.145Z,71.80
2017-11-26T13:53:46.814Z,71.60
2017-11-26T13:58:49.979Z,71.50
2017-11-26T14:03:52.674Z,71.50
2017-11-26T14:08:55.304Z,71.70
2017-11-26T14:13:57.906Z,71.50
2017-11-26T14:19:00.647Z,71.60
2017-11-26T14:24:03.231Z,71.60
2017-11-26T14:29:05.816Z,71.60
2017-11-26T14:34:08.382Z,71.60
2017-11-26T14:39:10.986Z,71.50
2017-11-26T14:44:13.546Z,71.30
2017-11-26T14:49:16.189Z,71.00
2017-11-26T14:54:18.830Z,70.80
2017-11-26T14:59:21.472Z,70.80
2017-11-26T15:04:24.073Z,71.10
2017-11-26T15:09:26.682Z,70.60
2017-11-26T15:14:29.302Z,70.80
2017-11-26T15:19:31.931Z,70.40
2017-11-26T15:24:34.512Z,70.50
2017-11-26T15:29:37.120Z,71.00
2017-11-26T15:34:39.758Z,71.00
2017-11-26T15:39:42.297Z,70.80
2017-11-26T15:44:44.857Z,71.10
2017-11-26T15:49:48.163Z,71.10
2017-11-26T15:54:50.713Z,71.00
2017-11-26T15:59:53.264Z,70.90
2017-11-26T16:04:55.827Z,70.60
2017-11-26T16:09:58.380Z,71.00
2017-11-26T16:15:00.925Z,70.80
2017-11-26T16:20:03.484Z,70.70
2017-11-26T16:25:06.040Z,70.90
2017-11-26T16:30:08.600Z,70.70
2017-11-26T16:35:11.149Z,71.00
2017-11-26T16:40:14.474Z,71.60
2017-11-26T16:45:17.021Z,71.50
2017-11-26T16:50:19.594Z,71.70
2017-11-26T16:55:22.144Z,71.90
2017-11-26T17:00:24.928Z,72.00
2017-11-26T17:05:27.757Z,72.00
2017-11-26T17:10:30.320Z,72.10
2017-11-26T17:15:32.874Z,72.20
2017-11-26T17:20:35.446Z,72.10
2017-11-26T17:25:38.012Z,72.30
2017-11-26T17:37:06.776Z,72.70
2017-11-26T17:42:09.381Z,72.70
2017-11-26T17:47:12.694Z,72.90
2017-11-26T17:52:16.033Z,73.20
2017-11-26T17:57:18.641Z,73.10
2017-11-26T18:02:21.150Z,73.30
2017-11-26T18:07:23.743Z,73.50
2017-11-26T18:12:26.335Z,73.40
2017-11-26T18:17:28.895Z,73.60
2017-11-26T18:22:31.690Z,73.60
2017-11-26T18:27:34.241Z,73.80
2017-11-26T18:32:36.817Z,73.80
2017-11-26T18:37:40.178Z,74.60
2017-11-26T18:42:42.770Z,73.90
2017-11-26T18:47:45.337Z,73.90
2017-11-26T18:52:48.006Z,73.90
2017-11-26T18:57:50.565Z,73.90
2017-11-26T19:02:53.128Z,73.90
2017-11-26T19:07:56.475Z,73.90
2017-11-26T19:12:59.034Z,74.00
2017-11-26T19:18:01.590Z,74.10
2017-11-26T19:23:04.177Z,73.90
2017-11-26T19:28:06.734Z,74.00
2017-11-26T19:33:09.291Z,74.10
2017-11-26T19:38:11.862Z,74.10
2017-11-26T19:43:14.416Z,74.20
2017-11-26T19:48:16.968Z,74.10
2017-11-26T19:53:19.574Z,74.70
2017-11-26T19:58:24.504Z,74.10
2017-11-26T20:03:27.429Z,74.10
2017-11-26T20:08:30.008Z,74.20
2017-11-26T20:13:32.582Z,73.90
2017-11-26T20:18:35.397Z,74.10
2017-11-26T20:23:37.956Z,74.10
2017-11-26T20:28:40.571Z,74.10
2017-11-26T20:33:43.130Z,74.20
2017-11-26T20:38:45.716Z,74.20
2017-11-26T20:43:48.954Z,74.20
2017-11-26T20:48:51.520Z,74.30
2017-11-26T20:53:54.086Z,74.40
2017-11-26T20:58:57.429Z,74.50
2017-11-26T21:03:59.973Z,74.40
2017-11-26T21:09:02.551Z,74.60
2017-11-26T21:14:05.117Z,74.60
2017-11-26T21:19:08.409Z,74.80
2017-11-26T21:24:11.002Z,74.80
2017-11-26T21:29:13.854Z,74.70
2017-11-26T21:34:16.446Z,74.60
2017-11-26T21:39:19.005Z,74.70
2017-11-26T21:44:21.573Z,75.00
2017-11-26T21:49:24.458Z,74.90
2017-11-26T21:54:27.004Z,74.90
2017-11-26T21:59:29.576Z,74.90
2017-11-26T22:04:32.119Z,75.00
2017-11-26T22:09:34.700Z,75.00
2017-11-26T22:14:37.245Z,75.00
2017-11-26T22:19:39.795Z,75.10
2017-11-26T22:24:42.377Z,75.10
2017-11-26T22:29:44.940Z,75.10
2017-11-26T22:34:47.494Z,75.00
2017-11-26T22:39:50.058Z,75.10
2017-11-26T22:44:52.621Z,75.20
2017-11-26T22:49:55.177Z,75.20
2017-11-26T22:54:57.730Z,75.20
2017-11-26T23:00:01.056Z,75.30
2017-11-26T23:05:03.623Z,75.40
2017-11-26T23:10:06.162Z,75.30
2017-11-26T23:15:08.704Z,75.40
2017-11-26T23:20:11.324Z,75.40
2017-11-26T23:25:14.645Z,75.50
2017-11-26T23:30:17.210Z,75.40
2017-11-26T23:35:19.760Z,75.60
2017-11-26T23:40:23.009Z,75.50
2017-11-26T23:45:25.560Z,75.40
2017-11-26T23:50:28.124Z,75.50
2017-11-26T23:55:30.661Z,75.50
